Time;durP1;ratioP1;P1;durP2;ratioP2;P2;SDS_P1;SDS_P2;PMS_P1;PMS_P2;Temp;Humidity;BMP_temperature;BMP_pressure;BME280_temperature;BME280_humidity;BME280_pressure;Samples;Min_cycle;Max_cycle;Signal;HPM_P1;HPM_P2
2021/04/12 00:02:08;;;;;;;1.83;1.30;;;12.60;64.90;;;;;;6175979;23;20017;-70
2021/04/12 00:04:52;;;;;;;1.83;1.40;;;12.60;64.90;;;;;;6177035;23;20188;-70
2021/04/12 00:07:25;;;;;;;2.05;1.38;;;12.80;64.50;;;;;;6152356;23;20066;-71
2021/04/12 00:10:04;;;;;;;2.05;1.50;;;12.80;64.00;;;;;;6178200;23;20019;-71
2021/04/12 00:13:03;;;;;;;1.77;1.40;;;12.80;64.40;;;;;;6206155;23;20015;-71
2021/04/12 00:15:46;;;;;;;1.67;1.38;;;12.60;65.30;;;;;;6144614;23;20028;-71
2021/04/12 00:18:27;;;;;;;1.85;1.30;;;12.70;64.80;;;;;;6206356;23;20020;-70
2021/04/12 00:20:56;;;;;;;1.63;1.20;;;12.70;65.00;;;;;;6192106;23;20019;-71
2021/04/12 00:23:35;;;;;;;1.80;1.23;;;12.70;64.70;;;;;;6169318;23;20017;-71
2021/04/12 00:26:08;;;;;;;3.25;1.45;;;12.80;64.20;;;;;;6172746;23;20028;-71
2021/04/12 00:28:56;;;;;;;1.50;1.30;;;12.50;65.50;;;;;;6149809;23;20255;-71
2021/04/12 00:31:27;;;;;;;3.40;1.50;;;12.60;64.90;;;;;;6172533;23;20207;-71
2021/04/12 00:34:04;;;;;;;2.20;1.45;;;12.70;64.50;;;;;;6153648;23;20264;-71
2021/04/12 00:36:39;;;;;;;2.03;1.40;;;12.70;64.60;;;;;;6180252;23;20075;-71
2021/04/12 00:39:09;;;;;;;1.70;1.17;;;12.80;64.20;;;;;;6182533;23;20008;-72
2021/04/12 00:41:57;;;;;;;2.95;1.40;;;12.70;64.80;;;;;;6196248;23;20011;-71
2021/04/12 00:44:50;;;;;;;1.80;1.30;;;12.60;64.70;;;;;;6196164;23;20013;-71
2021/04/12 00:47:27;;;;;;;1.88;1.40;;;12.60;65.00;;;;;;6201159;23;20016;-71
2021/04/12 00:49:56;;;;;;;3.08;1.40;;;12.60;64.90;;;;;;6173140;23;20251;-71
2021/04/12 00:52:30;;;;;;;2.92;1.48;;;12.60;64.70;;;;;;6226378;23;20027;-71
2021/04/12 00:55:16;;;;;;;2.10;1.60;;;12.40;65.50;;;;;;6229005;23;20020;-71
2021/04/12 00:57:49;;;;;;;2.17;1.25;;;12.50;65.20;;;;;;6205206;23;20024;-71
2021/04/12 01:00:30;;;;;;;2.45;1.30;;;12.60;65.00;;;;;;6206320;23;20099;-71
2021/04/12 01:03:14;;;;;;;1.80;1.15;;;12.60;64.70;;;;;;6172780;23;20200;-71
2021/04/12 01:06:03;;;;;;;1.70;1.20;;;12.70;64.80;;;;;;6219544;23;20231;-71
2021/04/12 01:08:53;;;;;;;2.30;1.30;;;12.40;65.40;;;;;;6171061;23;20349;-71
2021/04/12 01:11:30;;;;;;;1.52;1.23;;;12.50;64.90;;;;;;6223075;23;20020;-71
2021/04/12 01:14:00;;;;;;;1.83;1.30;;;12.60;64.50;;;;;;6223949;23;20020;-71
2021/04/12 01:16:59;;;;;;;2.50;1.48;;;12.50;65.00;;;;;;6200651;23;20203;-71
2021/04/12 01:19:53;;;;;;;2.08;1.40;;;12.60;64.70;;;;;;6227063;23;20087;-71
2021/04/12 01:23:06;;;;;;;2.80;1.40;;;12.50;64.80;;;;;;6200607;23;20016;-71
2021/04/12 01:25:53;;;;;;;1.23;1.10;;;12.40;64.80;;;;;;6199765;23;20064;-71
2021/04/12 01:28:39;;;;;;;1.45;1.10;;;12.50;64.40;;;;;;6201317;23;20020;-72
2021/04/12 01:31:23;;;;;;;1.25;0.90;;;12.50;64.20;;;;;;6176406;23;20019;-71
2021/04/12 01:34:15;;;;;;;1.23;1.02;;;12.40;64.20;;;;;;6202341;23;20008;-71
2021/04/12 01:37:01;;;;;;;1.50;1.00;;;12.40;64.70;;;;;;6170334;23;20009;-71
2021/04/12 01:39:52;;;;;;;1.30;1.00;;;12.40;64.80;;;;;;6229337;23;20051;-71
2021/04/12 01:42:57;;;;;;;1.30;0.90;;;12.40;64.30;;;;;;6146552;23;20264;-71
2021/04/12 01:45:45;;;;;;;1.48;1.10;;;12.40;64.30;;;;;;6199466;23;20345;-71
2021/04/12 01:48:31;;;;;;;1.38;1.00;;;12.40;64.00;;;;;;6198047;23;20019;-71
2021/04/12 01:51:29;;;;;;;1.92;1.17;;;12.50;63.70;;;;;;6194634;23;20066;-71
2021/04/12 01:54:25;;;;;;;1.20;1.00;;;12.30;64.50;;;;;;6194852;23;20004;-71
2021/04/12 01:57:28;;;;;;;1.65;1.00;;;12.40;64.20;;;;;;6155289;23;20357;-71
2021/04/12 02:00:12;;;;;;;1.40;1.00;;;12.40;63.60;;;;;;6194173;23;20019;-71
2021/04/12 02:02:40;;;;;;;1.33;1.00;;;12.30;63.70;;;;;;6221170;23;20012;-72
2021/04/12 02:05:17;;;;;;;1.02;0.90;;;12.20;64.20;;;;;;6172093;23;20009;-71
2021/04/12 02:08:24;;;;;;;1.27;0.80;;;12.30;63.90;;;;;;6174340;23;20296;-71
2021/04/12 02:11:05;;;;;;;1.77;1.20;;;12.40;63.40;;;;;;6172962;23;20012;-71
2021/04/12 02:13:39;;;;;;;1.40;1.08;;;12.40;63.30;;;;;;6175595;23;20318;-71
2021/04/12 02:16:32;;;;;;;1.50;1.20;;;12.20;63.60;;;;;;6218864;23;20334;-71
2021/04/12 02:19:24;;;;;;;1.65;1.20;;;12.30;63.90;;;;;;6180134;23;20215;-71
2021/04/12 02:22:16;;;;;;;1.95;1.35;;;12.10;64.20;;;;;;6183935;23;20004;-71
2021/04/12 02:25:00;;;;;;;;;;;12.00;64.90;;;;;;6185142;23;20016;-71
2021/04/12 02:27:40;;;;;;;3.63;1.30;;;12.10;64.50;;;;;;6224406;23;19900;-71
2021/04/12 02:30:29;;;;;;;1.90;1.33;;;12.00;64.70;;;;;;6197675;23;20064;-71
2021/04/12 02:33:11;;;;;;;2.13;1.48;;;12.10;64.80;;;;;;6126772;23;20039;-71
2021/04/12 02:35:56;;;;;;;6.43;2.10;;;12.20;64.10;;;;;;6174050;23;20016;-71
2021/04/12 02:38:36;;;;;;;2.58;1.90;;;12.10;64.70;;;;;;6169846;23;20012;-71
2021/04/12 02:41:35;;;;;;;2.40;1.90;;;12.20;64.40;;;;;;6174790;23;20019;-71
2021/04/12 02:44:16;;;;;;;2.67;2.00;;;12.20;64.50;;;;;;6224712;23;20015;-71
2021/04/12 02:47:12;;;;;;;2.97;1.80;;;12.20;64.10;;;;;;6226677;23;20015;-71
2021/04/12 02:49:59;;;;;;;2.92;2.33;;;12.10;64.70;;;;;;6204645;23;20059;-71
2021/04/12 02:52:45;;;;;;;3.65;2.15;;;11.80;65.80;;;;;;6227807;23;20195;-71
2021/04/12 02:55:49;;;;;;;3.13;2.60;;;12.10;65.10;;;;;;6206445;23;20024;-71
2021/04/12 02:58:42;;;;;;;5.00;2.50;;;12.00;65.30;;;;;;6202095;23;20008;-71
2021/04/12 03:01:42;;;;;;;2.90;2.50;;;12.10;64.90;;;;;;6228786;23;19997;-71
2021/04/12 03:04:21;;;;;;;4.93;2.70;;;12.00;65.10;;;;;;6229035;23;20069;-71
2021/04/12 03:07:11;;;;;;;3.50;2.90;;;11.90;66.00;;;;;;6204398;23;20288;-71
2021/04/12 03:09:55;;;;;;;3.70;2.83;;;11.80;66.10;;;;;;6230979;23;20024;-71
2021/04/12 03:13:04;;;;;;;3.88;2.83;;;11.80;66.20;;;;;;6206885;23;20382;-71
2021/04/12 03:15:56;;;;;;;5.70;2.88;;;11.90;66.10;;;;;;6140773;23;20021;-71
2021/04/12 03:18:33;;;;;;;4.30;3.50;;;12.10;65.40;;;;;;6214311;23;20016;-71
2021/04/12 03:21:17;;;;;;;5.95;3.78;;;12.10;65.30;;;;;;6146787;23;20020;-71
2021/04/12 03:23:59;;;;;;;5.70;4.60;;;12.00;65.60;;;;;;6222168;23;20026;-71
2021/04/12 03:26:43;;;;;;;7.82;4.93;;;12.10;65.40;;;;;;6174903;23;20023;-71
2021/04/12 03:29:32;;;;;;;7.18;5.70;;;12.20;65.60;;;;;;6224408;23;20063;-71
2021/04/12 03:32:23;;;;;;;7.82;6.57;;;12.10;65.80;;;;;;6174889;23;20009;-71
2021/04/12 03:34:51;;;;;;;9.68;7.53;;;12.10;66.00;;;;;;6203392;23;20011;-71
2021/04/12 03:37:43;;;;;;;9.05;7.28;;;11.90;66.70;;;;;;6227574;23;20075;-71
2021/04/12 03:40:16;;;;;;;8.43;6.82;;;12.00;66.70;;;;;;6202537;23;20019;-71
2021/04/12 03:43:13;;;;;;;8.88;7.40;;;12.00;66.80;;;;;;6203636;23;20042;-71
2021/04/12 03:46:06;;;;;;;8.27;6.80;;;12.10;66.60;;;;;;6173533;23;20013;-71
2021/04/12 03:48:40;;;;;;;7.60;6.35;;;11.90;67.40;;;;;;6219349;23;20028;-71
2021/04/12 03:51:20;;;;;;;7.95;6.22;;;12.00;66.80;;;;;;6233529;23;20000;-71
2021/04/12 03:54:10;;;;;;;9.68;6.25;;;11.60;67.70;;;;;;6197619;23;20015;-71
2021/04/12 03:57:02;;;;;;;7.00;5.25;;;11.30;67.90;;;;;;6222597;23;20015;-71
2021/04/12 03:59:42;;;;;;;6.32;4.72;;;11.60;67.00;;;;;;6196536;23;20018;-71
2021/04/12 04:02:42;;;;;;;7.05;4.43;;;11.60;66.50;;;;;;6196900;23;20009;-71
2021/04/12 04:05:29;;;;;;;6.68;5.05;;;11.40;66.20;;;;;;6123654;23;20303;-71
2021/04/12 04:08:31;;;;;;;5.72;4.72;;;11.30;66.50;;;;;;6225199;23;20180;-71
2021/04/12 04:10:59;;;;;;;7.18;4.93;;;11.40;66.30;;;;;;6181102;23;20051;-71
2021/04/12 04:13:31;;;;;;;8.68;4.53;;;11.10;67.10;;;;;;6219212;23;20009;-71
2021/04/12 04:15:59;;;;;;;;;;;11.40;66.60;;;;;;6203888;23;20000;-71
2021/04/12 04:18:35;;;;;;;6.80;4.45;;;11.40;66.20;;;;;;6191277;23;19916;-71
2021/04/12 04:21:21;;;;;;;8.35;4.20;;;11.50;65.70;;;;;;6165561;23;20020;-71
2021/04/12 04:24:04;;;;;;;5.95;4.53;;;11.60;65.70;;;;;;6189749;23;20024;-71
2021/04/12 04:26:39;;;;;;;6.13;4.55;;;11.60;65.40;;;;;;6192266;23;20072;-71
2021/04/12 04:29:27;;;;;;;7.57;4.50;;;11.70;65.40;;;;;;6193517;23;20107;-71
2021/04/12 04:32:27;;;;;;;6.65;5.60;;;11.60;66.10;;;;;;6193081;23;20012;-70
2021/04/12 04:35:10;;;;;;;6.47;5.65;;;11.50;66.30;;;;;;6167078;23;20037;-71
2021/04/12 04:37:44;;;;;;;6.85;5.63;;;11.40;67.10;;;;;;6194523;23;20028;-71
2021/04/12 04:40:29;;;;;;;7.32;5.93;;;11.40;67.60;;;;;;6171619;23;20025;-71
2021/04/12 04:42:59;;;;;;;7.00;5.65;;;11.40;67.70;;;;;;6174516;23;20239;-71
2021/04/12 04:45:43;;;;;;;8.32;5.80;;;11.30;68.10;;;;;;6166589;23;20009;-71
2021/04/12 04:48:32;;;;;;;8.07;5.40;;;11.30;68.40;;;;;;6166502;23;20283;-71
2021/04/12 04:51:23;;;;;;;7.03;5.35;;;11.10;69.50;;;;;;6168472;23;20017;-71
2021/04/12 04:54:15;;;;;;;7.10;5.40;;;11.10;69.80;;;;;;6190723;23;20059;-70
2021/04/12 04:56:56;;;;;;;8.10;5.40;;;11.20;69.40;;;;;;6190888;23;20590;-71
2021/04/12 04:59:40;;;;;;;7.40;5.00;;;10.90;69.80;;;;;;6191022;23;20009;-70
2021/04/12 05:02:30;;;;;;;6.32;3.92;;;11.00;69.80;;;;;;6192962;23;20013;-70
2021/04/12 05:05:08;;;;;;;5.93;3.55;;;10.80;70.20;;;;;;6194378;23;20065;-71
2021/04/12 05:07:58;;;;;;;5.38;3.05;;;10.80;70.40;;;;;;6195481;23;20013;-70
2021/04/12 05:10:32;;;;;;;4.55;2.88;;;10.40;70.20;;;;;;6196462;23;20343;-70
2021/04/12 05:13:25;;;;;;;3.80;2.70;;;10.60;70.00;;;;;;6197622;23;20019;-69
2021/04/12 05:16:19;;;;;;;3.10;2.58;;;10.30;69.30;;;;;;6164400;23;20001;-70
2021/04/12 05:19:22;;;;;;;5.47;2.55;;;10.30;68.70;;;;;;6196531;23;20019;-70
2021/04/12 05:22:15;;;;;;;4.47;2.97;;;10.10;68.60;;;;;;6198254;23;20012;-72
2021/04/12 05:25:02;;;;;;;4.75;3.00;;;10.10;69.10;;;;;;6149492;23;20009;-73
2021/04/12 05:28:06;;;;;;;5.13;3.50;;;10.10;69.60;;;;;;6199494;23;20306;-71
2021/04/12 05:30:49;;;;;;;3.58;2.53;;;10.00;69.40;;;;;;6199627;23;20001;-71
2021/04/12 05:33:54;;;;;;;2.80;2.20;;;9.90;68.90;;;;;;6200863;23;20013;-71
2021/04/12 05:36:43;;;;;;;3.08;2.25;;;9.80;68.30;;;;;;6145268;23;20071;-71
2021/04/12 05:39:37;;;;;;;3.17;2.17;;;9.50;68.80;;;;;;6189088;23;20389;-72
2021/04/12 05:42:34;;;;;;;3.75;2.00;;;9.50;68.40;;;;;;6189547;23;20020;-71
2021/04/12 05:45:05;;;;;;;3.75;1.95;;;9.40;67.80;;;;;;6165736;23;20215;-72
2021/04/12 05:47:39;;;;;;;;;;;9.20;68.20;;;;;;6189905;23;20017;-71
2021/04/12 05:50:39;;;;;;;2.50;1.50;;;9.00;67.10;;;;;;6208885;23;19909;-72
2021/04/12 05:53:40;;;;;;;2.15;1.63;;;8.90;67.30;;;;;;6188977;23;20251;-72
2021/04/12 05:56:33;;;;;;;1.67;1.50;;;8.90;67.50;;;;;;6188736;23;20336;-71
2021/04/12 05:59:27;;;;;;;3.00;1.70;;;8.80;67.80;;;;;;6161968;23;20312;-72
2021/04/12 06:02:17;;;;;;;2.42;1.58;;;8.70;67.80;;;;;;6187033;23;20200;-72
2021/04/12 06:04:42;;;;;;;1.40;1.08;;;8.60;67.20;;;;;;6168338;23;20040;-72
2021/04/12 06:07:41;;;;;;;2.35;1.40;;;8.40;66.80;;;;;;6192037;23;20059;-70
2021/04/12 06:10:25;;;;;;;2.40;1.33;;;8.40;66.30;;;;;;6174722;23;20208;-72
2021/04/12 06:13:28;;;;;;;1.13;0.85;;;8.20;65.40;;;;;;6197802;23;20005;-70
2021/04/12 06:16:28;;;;;;;1.30;1.00;;;7.90;66.40;;;;;;6197900;23;20071;-72
2021/04/12 06:19:21;;;;;;;2.65;1.05;;;7.90;66.40;;;;;;6156789;23;20076;-73
2021/04/12 06:22:16;;;;;;;1.30;1.00;;;7.90;66.40;;;;;;6157130;23;20018;-72
2021/04/12 06:25:06;;;;;;;2.80;1.25;;;7.90;66.70;;;;;;6159656;23;20028;-73
2021/04/12 06:27:56;;;;;;;3.78;1.30;;;7.80;67.00;;;;;;6167222;23;20080;-73
2021/04/12 06:30:42;;;;;;;1.75;1.10;;;7.60;67.50;;;;;;6139001;23;20322;-73
2021/04/12 06:33:13;;;;;;;2.42;1.17;;;7.60;67.40;;;;;;6132392;23;20013;-73
2021/04/12 06:35:45;;;;;;;1.77;1.30;;;7.50;67.30;;;;;;6133736;23;20017;-73
2021/04/12 06:38:29;;;;;;;2.80;1.30;;;7.60;67.40;;;;;;6162079;23;20029;-72
2021/04/12 06:41:32;;;;;;;1.75;1.40;;;7.70;67.10;;;;;;6161995;23;20364;-72
2021/04/12 06:44:25;;;;;;;2.25;1.40;;;7.60;67.20;;;;;;6160446;23;20009;-72
2021/04/12 06:47:28;;;;;;;1.83;1.20;;;7.50;67.00;;;;;;6158162;23;20052;-72
2021/04/12 06:50:25;;;;;;;3.58;1.50;;;7.30;67.20;;;;;;6163398;23;20017;-72
2021/04/12 06:53:28;;;;;;;3.45;1.50;;;7.40;67.30;;;;;;6160790;23;20013;-72
2021/04/12 06:55:53;;;;;;;2.58;1.50;;;7.10;67.70;;;;;;6160865;23;20002;-72
2021/04/12 06:58:59;;;;;;;2.58;1.50;;;7.10;68.00;;;;;;6164096;23;20313;-72
2021/04/12 07:01:30;;;;;;;1.98;1.33;;;7.30;67.70;;;;;;6140551;23;20184;-72
2021/04/12 07:04:16;;;;;;;;;;;7.20;67.70;;;;;;6165898;23;20068;-72
2021/04/12 07:07:00;;;;;;;3.17;1.40;;;7.10;66.80;;;;;;6159013;23;19905;-69
2021/04/12 07:09:45;;;;;;;2.75;1.48;;;6.90;68.40;;;;;;6161070;23;20005;-70
2021/04/12 07:12:37;;;;;;;3.20;1.52;;;7.00;68.10;;;;;;6160951;23;20522;-70
2021/04/12 07:15:22;;;;;;;2.10;1.70;;;7.00;67.90;;;;;;6159994;23;20021;-70
2021/04/12 07:18:06;;;;;;;2.08;1.70;;;6.90;67.70;;;;;;6162997;23;20025;-70
2021/04/12 07:20:55;;;;;;;2.35;1.80;;;6.90;67.40;;;;;;6165434;23;20219;-69
2021/04/12 07:23:55;;;;;;;3.00;1.70;;;6.70;68.70;;;;;;6097819;23;20275;-70
2021/04/12 07:26:50;;;;;;;2.47;1.45;;;6.70;68.90;;;;;;6185392;23;20032;-69
2021/04/12 07:29:45;;;;;;;3.28;1.90;;;6.80;68.50;;;;;;6192745;23;20013;-69
2021/04/12 07:32:49;;;;;;;3.95;1.80;;;6.60;68.30;;;;;;6155696;23;20020;-69
2021/04/12 07:35:42;;;;;;;3.28;1.92;;;6.70;69.00;;;;;;6191966;23;20021;-70
2021/04/12 07:38:29;;;;;;;2.28;1.77;;;6.70;69.00;;;;;;6191501;23;20021;-70
2021/04/12 07:40:54;;;;;;;3.03;2.13;;;6.70;69.10;;;;;;6192745;23;20013;-69
2021/04/12 07:43:39;;;;;;;3.25;1.83;;;6.80;68.80;;;;;;6197119;23;20259;-69
2021/04/12 07:46:18;;;;;;;2.47;1.98;;;6.60;69.20;;;;;;6198272;23;20040;-69
2021/04/12 07:49:20;;;;;;;3.30;2.05;;;6.60;68.60;;;;;;6197986;23;20012;-69
2021/04/12 07:52:18;;;;;;;2.42;1.73;;;6.40;69.30;;;;;;6197994;23;20024;-69
2021/04/12 07:55:12;;;;;;;2.80;2.10;;;6.50;69.20;;;;;;6199518;23;20336;-69
2021/04/12 07:57:56;;;;;;;3.10;1.90;;;6.40;70.00;;;;;;6173573;23;20287;-69
2021/04/12 08:00:41;;;;;;;2.80;2.05;;;6.50;69.60;;;;;;6142589;23;20020;-69
2021/04/12 08:03:44;;;;;;;4.22;1.98;;;6.50;69.50;;;;;;6190678;23;20056;-69
2021/04/12 08:06:21;;;;;;;6.07;2.60;;;6.40;69.70;;;;;;6190206;23;20032;-70
2021/04/12 08:08:50;;;;;;;4.30;2.33;;;6.50;69.90;;;;;;6185462;23;20223;-70
2021/04/12 08:11:53;;;;;;;6.55;2.40;;;6.50;69.80;;;;;;6191885;23;20112;-70
2021/04/12 08:14:50;;;;;;;4.57;2.53;;;6.50;70.00;;;;;;6191921;23;20009;-70
2021/04/12 08:17:32;;;;;;;6.00;2.60;;;6.50;70.20;;;;;;6180909;23;20025;-70
2021/04/12 08:20:34;;;;;;;3.92;2.78;;;6.50;70.20;;;;;;6162519;23;20036;-70
2021/04/12 08:23:37;;;;;;;5.13;2.47;;;6.50;70.20;;;;;;6162393;23;20014;-70
2021/04/12 08:26:40;;;;;;;3.58;2.28;;;6.40;70.30;;;;;;6133588;23;20036;-70
2021/04/12 08:29:43;;;;;;;4.32;2.83;;;6.40;70.40;;;;;;6162875;23;20010;-70
2021/04/12 08:32:33;;;;;;;4.25;2.90;;;6.50;70.70;;;;;;6158290;23;20006;-70
2021/04/12 08:35:15;;;;;;;4.82;2.97;;;6.50;70.60;;;;;;6163331;23;20216;-70
2021/04/12 08:37:56;;;;;;;4.38;3.03;;;6.50;70.60;;;;;;6162239;23;20036;-70
2021/04/12 08:40:32;;;;;;;3.45;2.53;;;6.60;70.40;;;;;;6164252;23;20013;-71
2021/04/12 08:43:24;;;;;;;3.72;2.78;;;6.40;70.70;;;;;;6166125;23;20271;-70
2021/04/12 08:46:21;;;;;;;5.63;3.00;;;6.50;70.70;;;;;;6167767;23;20064;-71
2021/04/12 08:49:11;;;;;;;4.05;3.05;;;6.70;70.60;;;;;;6168270;23;20009;-70
2021/04/12 08:52:00;;;;;;;5.15;3.08;;;6.70;70.70;;;;;;6169416;23;19993;-70
2021/04/12 08:54:59;;;;;;;4.20;2.90;;;6.60;70.20;;;;;;6161453;23;20285;-70
2021/04/12 08:57:46;;;;;;;3.25;2.70;;;6.70;70.30;;;;;;6131570;23;20179;-71
2021/04/12 09:00:18;;;;;;;5.22;2.72;;;6.70;70.30;;;;;;6160243;23;20380;-70
2021/04/12 09:03:09;;;;;;;6.18;3.30;;;6.70;71.10;;;;;;6106293;23;20010;-71
2021/04/12 09:05:56;;;;;;;4.10;2.90;;;6.80;70.80;;;;;;6129646;23;20064;-70
2021/04/12 09:08:43;;;;;;;4.20;2.85;;;6.70;70.80;;;;;;6153873;23;20221;-71
2021/04/12 09:11:31;;;;;;;5.00;3.17;;;6.80;70.80;;;;;;6140696;23;20010;-71
2021/04/12 09:14:14;;;;;;;4.45;3.40;;;6.70;70.30;;;;;;6138778;23;20017;-70
2021/04/12 09:16:43;;;;;;;5.10;3.38;;;6.80;70.80;;;;;;6161716;23;20082;-70
2021/04/12 09:19:36;;;;;;;4.85;3.20;;;6.70;70.80;;;;;;6195065;23;20029;-70
2021/04/12 09:22:22;;;;;;;9.02;4.55;;;6.70;70.30;;;;;;6187750;23;20016;-71
2021/04/12 09:25:19;;;;;;;5.38;3.05;;;6.70;71.00;;;;;;6190846;23;20013;-71
2021/04/12 09:27:52;;;;;;;4.10;3.22;;;6.90;70.50;;;;;;6170298;23;20031;-72
2021/04/12 09:30:28;;;;;;;4.82;3.40;;;6.90;70.30;;;;;;6199858;23;20029;-71
2021/04/12 09:33:15;;;;;;;5.07;3.22;;;6.80;70.30;;;;;;6161482;23;20048;-69
2021/04/12 09:35:59;;;;;;;5.32;3.42;;;6.80;70.40;;;;;;6181931;23;20020;-69
2021/04/12 09:38:52;;;;;;;3.70;2.92;;;6.90;70.60;;;;;;6186011;23;20024;-69
2021/04/12 09:41:49;;;;;;;4.18;3.20;;;6.90;70.70;;;;;;6191713;23;20048;-69
2021/04/12 09:44:37;;;;;;;6.07;3.20;;;6.90;70.70;;;;;;6163443;23;20028;-72
2021/04/12 09:47:23;;;;;;;4.10;2.72;;;7.10;70.40;;;;;;6192227;23;20068;-70
2021/04/12 09:50:29;;;;;;;5.53;3.10;;;6.90;69.80;;;;;;6139836;23;20013;-71
2021/04/12 09:53:19;;;;;;;3.75;2.67;;;6.90;70.10;;;;;;6192392;23;20064;-70
2021/04/12 09:56:07;;;;;;;4.32;3.10;;;6.80;69.70;;;;;;6192782;23;20005;-70
2021/04/12 09:59:02;;;;;;;4.25;2.90;;;6.90;70.40;;;;;;6178823;23;20241;-70
2021/04/12 10:01:51;;;;;;;3.80;2.70;;;7.10;69.90;;;;;;6138481;23;20008;-70
2021/04/12 10:04:34;;;;;;;5.20;2.95;;;6.90;70.40;;;;;;6194159;23;20315;-70
2021/04/12 10:07:19;;;;;;;5.22;2.85;;;7.00;70.30;;;;;;6139378;23;20013;-70
2021/04/12 10:10:06;;;;;;;4.28;2.95;;;7.00;69.90;;;;;;6171144;23;20009;-70
2021/04/12 10:12:58;;;;;;;3.50;2.70;;;7.10;69.60;;;;;;6172552;23;20020;-70
2021/04/12 10:15:35;;;;;;;4.80;2.90;;;7.10;69.20;;;;;;6176964;23;20005;-70
2021/04/12 10:18:14;;;;;;;4.65;3.08;;;7.10;68.90;;;;;;6188802;23;20068;-70
2021/04/12 10:20:49;;;;;;;4.50;3.10;;;7.00;69.40;;;;;;6187035;23;20082;-71
2021/04/12 10:23:46;;;;;;;4.10;2.90;;;7.10;69.50;;;;;;6188608;23;20103;-69
2021/04/12 10:26:19;;;;;;;4.20;2.97;;;7.10;69.10;;;;;;6179954;23;20052;-69
2021/04/12 10:29:30;;;;;;;4.20;3.15;;;7.00;69.10;;;;;;6169218;23;20216;-69
2021/04/12 10:31:59;;;;;;;3.72;2.92;;;7.20;69.40;;;;;;6149279;23;20037;-69
2021/04/12 10:34:35;;;;;;;5.38;3.33;;;7.00;69.20;;;;;;6194899;23;20021;-69
2021/04/12 10:37:40;;;;;;;5.22;3.30;;;7.00;68.90;;;;;;6196306;23;20072;-69
2021/04/12 10:40:26;;;;;;;6.00;3.60;;;6.90;68.50;;;;;;6195618;23;20027;-69
2021/04/12 10:43:29;;;;;;;5.07;3.42;;;6.90;69.80;;;;;;6168984;23;20029;-69
2021/04/12 10:46:07;;;;;;;4.50;3.05;;;7.00;69.50;;;;;;6192039;23;20335;-71
2021/04/12 10:48:40;;;;;;;7.25;3.25;;;7.10;69.40;;;;;;6198729;23;20001;-71
2021/04/12 10:51:36;;;;;;;5.10;3.00;;;7.10;69.40;;;;;;6202664;23;20318;-69
2021/04/12 10:54:26;;;;;;;5.05;3.10;;;7.10;69.40;;;;;;6194803;23;20036;-69
2021/04/12 10:57:23;;;;;;;4.45;3.35;;;7.10;69.20;;;;;;6191397;23;20017;-69
2021/04/12 11:00:20;;;;;;;5.63;3.67;;;7.10;69.60;;;;;;6191576;23;20024;-69
2021/04/12 11:03:18;;;;;;;4.18;3.30;;;7.20;69.30;;;;;;6160956;23;20005;-70
2021/04/12 11:05:46;;;;;;;5.93;3.17;;;7.10;69.70;;;;;;6153711;23;20113;-70
2021/04/12 11:08:14;;;;;;;4.47;3.05;;;7.10;69.20;;;;;;6192483;23;20069;-70
2021/04/12 11:11:25;;;;;;;4.35;3.20;;;7.00;69.30;;;;;;6189473;23;20013;-70
2021/04/12 11:13:51;;;;;;;6.35;3.03;;;7.00;69.60;;;;;;6194920;23;20017;-71
2021/04/12 11:16:21;;;;;;;4.05;3.10;;;6.90;70.10;;;;;;6196939;23;20315;-70
2021/04/12 11:19:16;;;;;;;4.32;3.00;;;6.90;70.30;;;;;;6173207;23;20212;-70
2021/04/12 11:22:09;;;;;;;4.85;3.20;;;7.10;69.30;;;;;;6199352;23;20303;-70
2021/04/12 11:24:58;;;;;;;3.75;2.92;;;7.10;69.80;;;;;;6199992;23;20009;-70
2021/04/12 11:27:55;;;;;;;3.90;2.70;;;7.20;69.40;;;;;;6202020;23;20296;-70
2021/04/12 11:30:34;;;;;;;3.72;2.75;;;7.10;69.70;;;;;;6190686;23;20345;-70
2021/04/12 11:33:33;;;;;;;4.85;2.65;;;7.20;69.20;;;;;;6166052;23;20084;-70
2021/04/12 11:36:19;;;;;;;6.32;2.58;;;7.10;68.90;;;;;;6190225;23;20322;-70
2021/04/12 11:39:02;;;;;;;4.40;2.90;;;7.30;68.40;;;;;;6168667;23;20017;-70
2021/04/12 11:41:37;;;;;;;3.97;2.80;;;7.30;68.60;;;;;;6166270;23;20200;-70
2021/04/12 11:44:07;;;;;;;3.50;2.80;;;7.30;68.70;;;;;;6193295;23;20011;-70
2021/04/12 11:47:00;;;;;;;3.85;2.95;;;7.40;68.80;;;;;;6165783;23;20013;-70
2021/04/12 11:50:00;;;;;;;5.22;2.95;;;7.50;68.70;;;;;;6143924;23;20055;-70
2021/04/12 11:52:29;;;;;;;3.90;2.60;;;7.50;68.20;;;;;;6171593;23;20013;-71
2021/04/12 11:55:25;;;;;;;3.47;2.60;;;7.40;67.80;;;;;;6141195;23;20020;-71
2021/04/12 11:57:57;;;;;;;4.97;2.78;;;7.40;68.30;;;;;;6197930;23;20009;-71
2021/04/12 12:00:41;;;;;;;3.75;2.42;;;7.40;69.00;;;;;;6176808;23;20191;-71
2021/04/12 12:03:21;;;;;;;6.47;3.03;;;7.40;69.20;;;;;;6161947;23;20018;-70
2021/04/12 12:06:16;;;;;;;3.83;2.85;;;7.40;69.30;;;;;;6159199;23;20065;-71
2021/04/12 12:08:59;;;;;;;5.05;2.70;;;7.50;69.10;;;;;;6188650;23;20017;-71
2021/04/12 12:11:45;;;;;;;6.00;3.25;;;7.60;68.50;;;;;;6168390;23;20021;-71
2021/04/12 12:14:29;;;;;;;5.22;3.72;;;7.50;69.00;;;;;;6170237;23;20013;-71
2021/04/12 12:16:55;;;;;;;5.50;3.30;;;7.60;69.00;;;;;;6187568;23;20032;-71
2021/04/12 12:19:46;;;;;;;4.32;3.08;;;7.50;68.50;;;;;;6165466;23;20343;-71
2021/04/12 12:22:53;;;;;;;4.38;3.15;;;7.40;68.70;;;;;;6166603;23;20009;-71
2021/04/12 12:25:36;;;;;;;5.13;3.22;;;7.40;68.60;;;;;;6168889;23;20104;-71
2021/04/12 12:28:24;;;;;;;3.40;2.95;;;7.40;68.60;;;;;;6160968;23;20064;-71
2021/04/12 12:31:31;;;;;;;3.90;3.10;;;7.30;69.10;;;;;;6168628;23;20077;-71
2021/04/12 12:34:10;;;;;;;6.35;3.80;;;7.40;68.90;;;;;;6167814;23;20204;-71
2021/04/12 12:36:56;;;;;;;7.88;4.00;;;7.60;68.90;;;;;;6141131;23;20017;-71
2021/04/12 12:39:29;;;;;;;5.53;3.53;;;7.60;69.10;;;;;;6171488;23;20024;-71
2021/04/12 12:41:54;;;;;;;6.13;3.55;;;7.60;69.20;;;;;;6136020;23;20013;-71
2021/04/12 12:44:23;;;;;;;5.47;3.88;;;7.60;68.70;;;;;;6161632;23;20364;-71
2021/04/12 12:46:48;;;;;;;7.97;3.72;;;7.40;69.20;;;;;;6163918;23;20068;-71
2021/04/12 12:49:17;;;;;;;5.13;3.67;;;7.40;69.00;;;;;;6166247;23;20014;-71
2021/04/12 12:51:59;;;;;;;4.72;3.67;;;7.40;68.20;;;;;;6168450;23;20005;-71
2021/04/12 12:54:44;;;;;;;5.22;3.80;;;7.20;68.50;;;;;;6148263;23;20207;-71
2021/04/12 12:57:34;;;;;;;5.40;3.83;;;7.20;68.60;;;;;;6162003;23;20032;-71
2021/04/12 13:00:17;;;;;;;4.70;3.55;;;7.40;68.40;;;;;;6135332;23;20002;-71
2021/04/12 13:02:42;;;;;;;6.50;4.07;;;7.40;68.70;;;;;;6160111;23;20236;-71
2021/04/12 13:05:28;;;;;;;4.15;3.25;;;7.40;68.50;;;;;;6161772;23;20020;-72
2021/04/12 13:08:08;;;;;;;4.78;3.67;;;7.40;68.30;;;;;;6138637;23;20304;-72
2021/04/12 13:10:44;;;;;;;4.30;3.63;;;7.50;68.10;;;;;;6165461;23;20013;-71
2021/04/12 13:13:40;;;;;;;4.53;3.70;;;7.40;68.20;;;;;;6165910;23;20017;-72
2021/04/12 13:16:19;;;;;;;4.15;3.47;;;7.40;68.60;;;;;;6157182;23;20340;-71
2021/04/12 13:19:02;;;;;;;8.93;4.47;;;7.40;68.10;;;;;;6170463;23;20009;-71
2021/04/12 13:21:29;;;;;;;6.38;3.72;;;7.50;68.30;;;;;;6175700;23;20067;-71
2021/04/12 13:24:11;;;;;;;4.75;3.80;;;7.50;68.80;;;;;;6166546;23;20016;-71
2021/04/12 13:26:42;;;;;;;5.13;3.33;;;7.40;69.20;;;;;;6164619;23;20019;-72
2021/04/12 13:29:14;;;;;;;5.07;3.72;;;7.20;68.70;;;;;;6192138;23;20076;-71
2021/04/12 13:31:54;;;;;;;7.50;3.97;;;7.40;69.10;;;;;;6195380;23;20016;-72
2021/04/12 13:34:33;;;;;;;5.35;3.70;;;7.50;67.90;;;;;;6146057;23;20076;-71
2021/04/12 13:37:12;;;;;;;5.22;3.55;;;7.60;67.30;;;;;;6149920;23;20017;-72
2021/04/12 13:39:46;;;;;;;4.88;3.53;;;7.50;67.80;;;;;;6175257;23;20271;-71
2021/04/12 13:42:35;;;;;;;4.25;3.15;;;7.50;67.80;;;;;;6176437;23;20275;-72
2021/04/12 13:45:08;;;;;;;4.25;3.33;;;7.60;67.40;;;;;;6188829;23;20293;-70
2021/04/12 13:47:48;;;;;;;5.07;3.60;;;7.50;67.40;;;;;;6139027;23;20067;-70
2021/04/12 13:50:20;;;;;;;5.57;3.67;;;7.50;67.50;;;;;;6141883;23;20009;-69
2021/04/12 13:52:49;;;;;;;4.70;3.55;;;7.40;67.10;;;;;;6193289;23;20079;-70
2021/04/12 13:55:19;;;;;;;5.47;3.92;;;7.40;67.70;;;;;;6170760;23;20020;-68
2021/04/12 13:58:03;;;;;;;6.93;3.10;;;7.20;68.30;;;;;;6173152;23;20005;-70
2021/04/12 14:00:32;;;;;;;4.20;3.30;;;7.20;68.40;;;;;;6148191;23;20012;-74
2021/04/12 14:03:26;;;;;;;4.55;3.35;;;7.10;68.30;;;;;;6151622;23;20009;-74
2021/04/12 14:06:13;;;;;;;5.18;3.83;;;7.10;68.20;;;;;;6167650;23;20072;-71
2021/04/12 14:08:48;;;;;;;8.73;4.47;;;7.00;68.70;;;;;;6164655;23;20212;-69
2021/04/12 14:11:23;;;;;;;6.28;3.78;;;7.10;68.90;;;;;;6166835;23;20028;-71
2021/04/12 14:13:52;;;;;;;5.60;4.10;;;7.10;69.00;;;;;;6168900;23;20032;-72
2021/04/12 14:16:25;;;;;;;8.55;4.57;;;7.10;68.90;;;;;;6170243;23;20577;-71
2021/04/12 14:19:05;;;;;;;6.13;4.20;;;7.00;69.20;;;;;;6171534;23;20036;-68
2021/04/12 14:21:36;;;;;;;7.35;5.18;;;6.90;69.30;;;;;;6198282;23;20132;-71
2021/04/12 14:24:11;;;;;;;6.70;4.18;;;6.80;70.10;;;;;;6176629;23;20032;-71
2021/04/12 14:26:41;;;;;;;6.38;4.50;;;6.90;70.70;;;;;;6165185;23;20076;-68
2021/04/12 14:29:32;;;;;;;7.43;4.10;;;6.90;70.20;;;;;;6189994;23;20020;-69
2021/04/12 14:32:08;;;;;;;6.07;4.13;;;6.90;69.70;;;;;;6169709;23;20040;-67